sensor_id;sensor_type;location;lat;lon;timestamp;P1;durP1;ratioP1;P2;durP2;ratioP2
5995;SDS011;3026;53.612;7.278;2023-08-31T00:01:13;2.83;;;1.10;;
5995;SDS011;3026;53.612;7.278;2023-08-31T00:03:40;2.20;;;1.10;;
5995;SDS011;3026;53.612;7.278;2023-08-31T00:06:08;1.63;;;1.07;;
5995;SDS011;3026;53.612;7.278;2023-08-31T00:08:35;2.00;;;1.00;;
5995;SDS011;3026;53.612;7.278;2023-08-31T00:11:02;1.13;;;0.90;;
5995;SDS011;3026;53.612;7.278;2023-08-31T00:13:29;2.80;;;1.10;;
5995;SDS011;3026;53.612;7.278;2023-08-31T00:15:56;1.70;;;1.40;;
5995;SDS011;3026;53.612;7.278;2023-08-31T00:18:25;2.77;;;1.00;;
5995;SDS011;3026;53.612;7.278;2023-08-31T00:20:52;2.50;;;1.00;;
5995;SDS011;3026;53.612;7.278;2023-08-31T00:23:20;2.03;;;1.30;;
5995;SDS011;3026;53.612;7.278;2023-08-31T00:25:47;2.67;;;1.10;;
5995;SDS011;3026;53.612;7.278;2023-08-31T00:28:15;2.03;;;0.90;;
5995;SDS011;3026;53.612;7.278;2023-08-31T00:30:43;6.00;;;1.00;;
5995;SDS011;3026;53.612;7.278;2023-08-31T00:33:11;1.70;;;0.90;;
5995;SDS011;3026;53.612;7.278;2023-08-31T00:35:41;2.10;;;0.90;;
5995;SDS011;3026;53.612;7.278;2023-08-31T00:38:09;2.13;;;1.23;;
5995;SDS011;3026;53.612;7.278;2023-08-31T00:40:38;3.63;;;1.20;;
5995;SDS011;3026;53.612;7.278;2023-08-31T00:43:09;3.13;;;1.67;;
5995;SDS011;3026;53.612;7.278;2023-08-31T00:45:36;3.83;;;1.27;;
5995;SDS011;3026;53.612;7.278;2023-08-31T00:48:05;5.17;;;1.10;;
5995;SDS011;3026;53.612;7.278;2023-08-31T00:50:33;2.37;;;1.57;;
5995;SDS011;3026;53.612;7.278;2023-08-31T00:53:03;3.23;;;1.70;;
5995;SDS011;3026;53.612;7.278;2023-08-31T00:55:31;4.37;;;1.30;;
5995;SDS011;3026;53.612;7.278;2023-08-31T00:57:59;5.07;;;1.30;;
5995;SDS011;3026;53.612;7.278;2023-08-31T01:00:28;5.73;;;1.10;;
5995;SDS011;3026;53.612;7.278;2023-08-31T01:03:05;1.30;;;1.10;;
5995;SDS011;3026;53.612;7.278;2023-08-31T01:05:43;4.07;;;1.27;;
5995;SDS011;3026;53.612;7.278;2023-08-31T01:08:21;2.90;;;1.10;;
5995;SDS011;3026;53.612;7.278;2023-08-31T01:11:01;3.30;;;1.30;;
5995;SDS011;3026;53.612;7.278;2023-08-31T01:13:34;2.83;;;1.10;;
5995;SDS011;3026;53.612;7.278;2023-08-31T01:16:03;2.10;;;1.20;;
5995;SDS011;3026;53.612;7.278;2023-08-31T01:18:33;2.20;;;1.23;;
5995;SDS011;3026;53.612;7.278;2023-08-31T01:21:06;4.20;;;1.10;;
5995;SDS011;3026;53.612;7.278;2023-08-31T01:26:24;2.33;;;1.03;;
5995;SDS011;3026;53.612;7.278;2023-08-31T01:28:52;1.70;;;1.17;;
5995;SDS011;3026;53.612;7.278;2023-08-31T01:31:19;4.50;;;1.30;;
5995;SDS011;3026;53.612;7.278;2023-08-31T01:33:47;3.67;;;1.00;;
5995;SDS011;3026;53.612;7.278;2023-08-31T01:36:17;1.80;;;1.20;;
5995;SDS011;3026;53.612;7.278;2023-08-31T01:38:48;2.03;;;1.13;;
5995;SDS011;3026;53.612;7.278;2023-08-31T01:41:19;2.90;;;1.33;;
5995;SDS011;3026;53.612;7.278;2023-08-31T01:43:55;5.17;;;1.50;;
5995;SDS011;3026;53.612;7.278;2023-08-31T01:46:22;3.53;;;1.10;;
5995;SDS011;3026;53.612;7.278;2023-08-31T01:48:50;2.57;;;1.00;;
5995;SDS011;3026;53.612;7.278;2023-08-31T01:51:17;3.03;;;1.30;;
5995;SDS011;3026;53.612;7.278;2023-08-31T01:53:44;3.13;;;1.27;;
5995;SDS011;3026;53.612;7.278;2023-08-31T01:56:12;2.10;;;1.30;;
5995;SDS011;3026;53.612;7.278;2023-08-31T01:58:41;2.03;;;0.93;;
5995;SDS011;3026;53.612;7.278;2023-08-31T02:01:09;2.43;;;1.00;;
5995;SDS011;3026;53.612;7.278;2023-08-31T02:03:38;1.97;;;1.00;;
5995;SDS011;3026;53.612;7.278;2023-08-31T02:06:06;1.33;;;0.87;;
5995;SDS011;3026;53.612;7.278;2023-08-31T02:08:32;3.73;;;1.20;;
5995;SDS011;3026;53.612;7.278;2023-08-31T02:11:00;1.30;;;0.87;;
5995;SDS011;3026;53.612;7.278;2023-08-31T02:13:27;1.87;;;1.00;;
5995;SDS011;3026;53.612;7.278;2023-08-31T02:15:55;1.60;;;0.70;;
5995;SDS011;3026;53.612;7.278;2023-08-31T02:18:23;8.17;;;1.10;;
5995;SDS011;3026;53.612;7.278;2023-08-31T02:20:51;0.60;;;0.60;;
5995;SDS011;3026;53.612;7.278;2023-08-31T02:23:18;3.17;;;1.10;;
5995;SDS011;3026;53.612;7.278;2023-08-31T02:25:47;2.63;;;0.97;;
5995;SDS011;3026;53.612;7.278;2023-08-31T02:28:14;1.50;;;0.87;;
5995;SDS011;3026;53.612;7.278;2023-08-31T02:30:43;1.03;;;0.90;;
5995;SDS011;3026;53.612;7.278;2023-08-31T02:33:13;4.30;;;0.83;;
5995;SDS011;3026;53.612;7.278;2023-08-31T02:35:40;1.13;;;0.70;;
5995;SDS011;3026;53.612;7.278;2023-08-31T02:38:07;1.37;;;1.00;;
5995;SDS011;3026;53.612;7.278;2023-08-31T02:40:34;2.47;;;1.10;;
5995;SDS011;3026;53.612;7.278;2023-08-31T02:43:01;2.20;;;1.00;;
5995;SDS011;3026;53.612;7.278;2023-08-31T02:45:29;1.30;;;1.20;;
5995;SDS011;3026;53.612;7.278;2023-08-31T02:47:55;4.63;;;1.43;;
5995;SDS011;3026;53.612;7.278;2023-08-31T02:50:24;1.33;;;0.80;;
5995;SDS011;3026;53.612;7.278;2023-08-31T02:52:51;2.93;;;0.90;;
5995;SDS011;3026;53.612;7.278;2023-08-31T02:55:18;1.70;;;0.90;;
5995;SDS011;3026;53.612;7.278;2023-08-31T02:57:46;2.80;;;1.10;;
5995;SDS011;3026;53.612;7.278;2023-08-31T03:00:13;1.83;;;1.10;;
5995;SDS011;3026;53.612;7.278;2023-08-31T03:02:41;3.30;;;1.03;;
5995;SDS011;3026;53.612;7.278;2023-08-31T03:05:09;2.00;;;1.00;;
5995;SDS011;3026;53.612;7.278;2023-08-31T03:07:38;2.80;;;1.00;;
5995;SDS011;3026;53.612;7.278;2023-08-31T03:10:06;0.80;;;0.80;;
5995;SDS011;3026;53.612;7.278;2023-08-31T03:12:33;4.80;;;1.10;;
5995;SDS011;3026;53.612;7.278;2023-08-31T03:15:01;2.77;;;1.10;;
5995;SDS011;3026;53.612;7.278;2023-08-31T03:17:28;1.37;;;1.00;;
5995;SDS011;3026;53.612;7.278;2023-08-31T03:19:55;1.43;;;1.30;;
5995;SDS011;3026;53.612;7.278;2023-08-31T03:22:22;1.53;;;1.10;;
5995;SDS011;3026;53.612;7.278;2023-08-31T03:24:51;3.17;;;1.30;;
5995;SDS011;3026;53.612;7.278;2023-08-31T03:27:17;1.37;;;0.97;;
5995;SDS011;3026;53.612;7.278;2023-08-31T03:29:45;1.83;;;1.67;;
5995;SDS011;3026;53.612;7.278;2023-08-31T03:32:12;1.23;;;1.10;;
5995;SDS011;3026;53.612;7.278;2023-08-31T03:34:39;3.00;;;1.40;;
5995;SDS011;3026;53.612;7.278;2023-08-31T03:37:07;5.53;;;1.20;;
5995;SDS011;3026;53.612;7.278;2023-08-31T03:39:34;2.40;;;1.20;;
5995;SDS011;3026;53.612;7.278;2023-08-31T03:42:04;3.07;;;1.40;;
5995;SDS011;3026;53.612;7.278;2023-08-31T03:44:31;1.40;;;1.23;;
5995;SDS011;3026;53.612;7.278;2023-08-31T03:46:59;5.90;;;1.10;;
5995;SDS011;3026;53.612;7.278;2023-08-31T03:49:26;4.10;;;1.30;;
5995;SDS011;3026;53.612;7.278;2023-08-31T03:51:53;1.20;;;1.10;;
5995;SDS011;3026;53.612;7.278;2023-08-31T03:54:20;2.30;;;1.00;;
5995;SDS011;3026;53.612;7.278;2023-08-31T03:56:49;3.87;;;1.13;;
5995;SDS011;3026;53.612;7.278;2023-08-31T03:59:17;2.77;;;1.10;;
5995;SDS011;3026;53.612;7.278;2023-08-31T04:01:44;1.70;;;1.03;;
5995;SDS011;3026;53.612;7.278;2023-08-31T04:04:18;3.73;;;1.13;;
5995;SDS011;3026;53.612;7.278;2023-08-31T04:06:45;1.60;;;1.07;;
5995;SDS011;3026;53.612;7.278;2023-08-31T04:09:12;2.80;;;1.10;;
5995;SDS011;3026;53.612;7.278;2023-08-31T04:11:39;1.33;;;0.87;;
5995;SDS011;3026;53.612;7.278;2023-08-31T04:14:06;1.10;;;1.00;;
5995;SDS011;3026;53.612;7.278;2023-08-31T04:16:34;4.20;;;1.10;;
5995;SDS011;3026;53.612;7.278;2023-08-31T04:19:03;2.87;;;1.00;;
5995;SDS011;3026;53.612;7.278;2023-08-31T04:21:30;2.07;;;1.10;;
5995;SDS011;3026;53.612;7.278;2023-08-31T04:23:57;1.97;;;1.10;;
5995;SDS011;3026;53.612;7.278;2023-08-31T04:26:25;4.23;;;1.07;;
5995;SDS011;3026;53.612;7.278;2023-08-31T04:28:53;2.30;;;1.10;;
5995;SDS011;3026;53.612;7.278;2023-08-31T04:31:20;2.40;;;1.10;;
5995;SDS011;3026;53.612;7.278;2023-08-31T04:33:49;1.27;;;0.90;;
5995;SDS011;3026;53.612;7.278;2023-08-31T04:36:18;1.83;;;1.20;;
5995;SDS011;3026;53.612;7.278;2023-08-31T04:38:47;2.97;;;1.17;;
5995;SDS011;3026;53.612;7.278;2023-08-31T04:41:15;3.63;;;1.30;;
5995;SDS011;3026;53.612;7.278;2023-08-31T04:43:42;2.20;;;0.93;;
5995;SDS011;3026;53.612;7.278;2023-08-31T04:46:10;1.60;;;0.90;;
5995;SDS011;3026;53.612;7.278;2023-08-31T04:48:36;2.50;;;1.80;;
5995;SDS011;3026;53.612;7.278;2023-08-31T04:51:09;3.00;;;1.23;;
5995;SDS011;3026;53.612;7.278;2023-08-31T04:53:54;2.93;;;1.10;;
5995;SDS011;3026;53.612;7.278;2023-08-31T04:56:21;2.70;;;0.90;;
5995;SDS011;3026;53.612;7.278;2023-08-31T04:58:49;2.50;;;0.93;;
5995;SDS011;3026;53.612;7.278;2023-08-31T05:01:16;3.67;;;1.10;;
5995;SDS011;3026;53.612;7.278;2023-08-31T05:03:43;1.17;;;1.07;;
5995;SDS011;3026;53.612;7.278;2023-08-31T05:06:12;1.50;;;1.10;;
5995;SDS011;3026;53.612;7.278;2023-08-31T05:08:39;2.33;;;1.00;;
5995;SDS011;3026;53.612;7.278;2023-08-31T05:11:07;4.10;;;1.00;;
5995;SDS011;3026;53.612;7.278;2023-08-31T05:13:34;1.70;;;1.10;;
5995;SDS011;3026;53.612;7.278;2023-08-31T05:16:03;2.30;;;1.03;;
5995;SDS011;3026;53.612;7.278;2023-08-31T05:18:30;3.07;;;1.33;;
5995;SDS011;3026;53.612;7.278;2023-08-31T05:20:57;11.53;;;1.20;;
5995;SDS011;3026;53.612;7.278;2023-08-31T05:23:27;1.37;;;1.27;;
5995;SDS011;3026;53.612;7.278;2023-08-31T05:25:56;1.30;;;1.10;;
5995;SDS011;3026;53.612;7.278;2023-08-31T05:28:23;2.63;;;1.10;;
5995;SDS011;3026;53.612;7.278;2023-08-31T05:30:50;1.17;;;1.00;;
5995;SDS011;3026;53.612;7.278;2023-08-31T05:33:18;1.70;;;1.13;;
5995;SDS011;3026;53.612;7.278;2023-08-31T05:35:47;1.30;;;1.20;;
5995;SDS011;3026;53.612;7.278;2023-08-31T05:38:14;2.93;;;1.20;;
5995;SDS011;3026;53.612;7.278;2023-08-31T05:40:43;1.60;;;1.47;;
5995;SDS011;3026;53.612;7.278;2023-08-31T05:43:11;3.23;;;1.20;;
5995;SDS011;3026;53.612;7.278;2023-08-31T05:45:38;3.50;;;1.37;;
5995;SDS011;3026;53.612;7.278;2023-08-31T05:48:06;3.73;;;1.27;;
5995;SDS011;3026;53.612;7.278;2023-08-31T05:50:36;2.37;;;1.23;;
5995;SDS011;3026;53.612;7.278;2023-08-31T05:53:03;2.37;;;1.00;;
5995;SDS011;3026;53.612;7.278;2023-08-31T05:55:33;3.40;;;1.63;;
5995;SDS011;3026;53.612;7.278;2023-08-31T05:58:02;2.37;;;1.40;;
5995;SDS011;3026;53.612;7.278;2023-08-31T06:00:30;1.13;;;0.90;;
5995;SDS011;3026;53.612;7.278;2023-08-31T06:02:57;2.77;;;1.00;;
5995;SDS011;3026;53.612;7.278;2023-08-31T06:05:24;2.27;;;1.20;;
5995;SDS011;3026;53.612;7.278;2023-08-31T06:07:52;2.53;;;1.20;;
5995;SDS011;3026;53.612;7.278;2023-08-31T06:10:19;2.57;;;1.30;;
5995;SDS011;3026;53.612;7.278;2023-08-31T06:12:48;4.57;;;1.60;;
5995;SDS011;3026;53.612;7.278;2023-08-31T06:15:17;2.70;;;1.27;;
5995;SDS011;3026;53.612;7.278;2023-08-31T06:17:44;3.63;;;1.30;;
5995;SDS011;3026;53.612;7.278;2023-08-31T06:20:11;4.03;;;1.53;;
5995;SDS011;3026;53.612;7.278;2023-08-31T06:22:38;2.20;;;1.30;;
5995;SDS011;3026;53.612;7.278;2023-08-31T06:25:06;4.40;;;1.60;;
5995;SDS011;3026;53.612;7.278;2023-08-31T06:27:33;4.57;;;1.37;;
5995;SDS011;3026;53.612;7.278;2023-08-31T06:30:00;3.93;;;1.40;;
5995;SDS011;3026;53.612;7.278;2023-08-31T06:32:30;1.30;;;1.20;;
5995;SDS011;3026;53.612;7.278;2023-08-31T06:34:57;4.67;;;1.40;;
5995;SDS011;3026;53.612;7.278;2023-08-31T06:37:24;1.83;;;1.20;;
5995;SDS011;3026;53.612;7.278;2023-08-31T06:39:51;2.60;;;1.30;;
5995;SDS011;3026;53.612;7.278;2023-08-31T06:42:18;4.23;;;1.70;;
5995;SDS011;3026;53.612;7.278;2023-08-31T06:44:47;4.90;;;1.70;;
5995;SDS011;3026;53.612;7.278;2023-08-31T06:47:15;2.30;;;1.30;;
5995;SDS011;3026;53.612;7.278;2023-08-31T06:49:44;3.83;;;1.70;;
5995;SDS011;3026;53.612;7.278;2023-08-31T06:52:11;3.60;;;1.20;;
5995;SDS011;3026;53.612;7.278;2023-08-31T06:54:38;3.77;;;1.60;;
5995;SDS011;3026;53.612;7.278;2023-08-31T06:57:05;1.67;;;1.30;;
5995;SDS011;3026;53.612;7.278;2023-08-31T06:59:32;1.73;;;1.40;;
5995;SDS011;3026;53.612;7.278;2023-08-31T07:01:59;2.50;;;1.67;;
5995;SDS011;3026;53.612;7.278;2023-08-31T07:04:26;3.00;;;1.37;;
5995;SDS011;3026;53.612;7.278;2023-08-31T07:06:55;3.87;;;1.63;;
5995;SDS011;3026;53.612;7.278;2023-08-31T07:09:22;3.40;;;2.17;;
5995;SDS011;3026;53.612;7.278;2023-08-31T07:11:52;4.20;;;1.83;;
5995;SDS011;3026;53.612;7.278;2023-08-31T07:14:19;7.27;;;2.00;;
5995;SDS011;3026;53.612;7.278;2023-08-31T07:16:46;5.07;;;1.77;;
5995;SDS011;3026;53.612;7.278;2023-08-31T07:19:13;3.33;;;1.53;;
5995;SDS011;3026;53.612;7.278;2023-08-31T07:21:40;1.40;;;1.20;;
5995;SDS011;3026;53.612;7.278;2023-08-31T07:24:09;5.63;;;1.47;;
5995;SDS011;3026;53.612;7.278;2023-08-31T07:26:36;3.63;;;1.90;;
5995;SDS011;3026;53.612;7.278;2023-08-31T07:29:03;3.00;;;1.60;;
5995;SDS011;3026;53.612;7.278;2023-08-31T07:31:31;1.97;;;1.50;;
5995;SDS011;3026;53.612;7.278;2023-08-31T07:33:58;2.27;;;1.40;;
5995;SDS011;3026;53.612;7.278;2023-08-31T07:36:26;3.17;;;1.50;;
5995;SDS011;3026;53.612;7.278;2023-08-31T07:38:53;3.67;;;1.80;;
5995;SDS011;3026;53.612;7.278;2023-08-31T07:41:22;4.10;;;1.67;;
5995;SDS011;3026;53.612;7.278;2023-08-31T07:43:49;2.63;;;1.50;;
5995;SDS011;3026;53.612;7.278;2023-08-31T07:46:17;8.33;;;1.93;;
5995;SDS011;3026;53.612;7.278;2023-08-31T07:48:44;3.10;;;1.57;;
5995;SDS011;3026;53.612;7.278;2023-08-31T07:51:13;4.77;;;1.67;;
5995;SDS011;3026;53.612;7.278;2023-08-31T07:53:42;5.10;;;1.60;;
5995;SDS011;3026;53.612;7.278;2023-08-31T07:56:09;4.37;;;1.53;;
5995;SDS011;3026;53.612;7.278;2023-08-31T07:58:37;2.23;;;1.50;;
5995;SDS011;3026;53.612;7.278;2023-08-31T08:01:04;2.87;;;1.60;;
5995;SDS011;3026;53.612;7.278;2023-08-31T08:03:31;3.83;;;1.90;;
5995;SDS011;3026;53.612;7.278;2023-08-31T08:05:59;2.37;;;1.33;;
5995;SDS011;3026;53.612;7.278;2023-08-31T08:08:26;2.03;;;1.80;;
5995;SDS011;3026;53.612;7.278;2023-08-31T08:10:54;3.07;;;1.63;;
5995;SDS011;3026;53.612;7.278;2023-08-31T08:13:21;3.43;;;1.33;;
5995;SDS011;3026;53.612;7.278;2023-08-31T08:15:50;2.50;;;1.50;;
5995;SDS011;3026;53.612;7.278;2023-08-31T08:18:17;5.90;;;2.10;;
5995;SDS011;3026;53.612;7.278;2023-08-31T08:20:46;6.07;;;1.60;;
5995;SDS011;3026;53.612;7.278;2023-08-31T08:23:16;7.73;;;2.07;;
5995;SDS011;3026;53.612;7.278;2023-08-31T08:25:43;1.50;;;1.33;;
5995;SDS011;3026;53.612;7.278;2023-08-31T08:28:10;4.60;;;1.90;;
5995;SDS011;3026;53.612;7.278;2023-08-31T08:30:37;7.10;;;2.87;;
5995;SDS011;3026;53.612;7.278;2023-08-31T08:33:06;3.80;;;1.80;;
5995;SDS011;3026;53.612;7.278;2023-08-31T08:35:33;3.77;;;1.87;;
5995;SDS011;3026;53.612;7.278;2023-08-31T08:38:00;2.50;;;1.70;;
5995;SDS011;3026;53.612;7.278;2023-08-31T08:40:27;3.30;;;2.17;;
5995;SDS011;3026;53.612;7.278;2023-08-31T08:42:54;6.63;;;1.90;;
5995;SDS011;3026;53.612;7.278;2023-08-31T08:45:24;4.03;;;2.07;;
5995;SDS011;3026;53.612;7.278;2023-08-31T08:47:53;5.10;;;1.90;;
5995;SDS011;3026;53.612;7.278;2023-08-31T08:50:23;4.13;;;1.90;;
5995;SDS011;3026;53.612;7.278;2023-08-31T08:52:51;3.93;;;1.70;;
5995;SDS011;3026;53.612;7.278;2023-08-31T08:55:19;4.67;;;2.00;;
5995;SDS011;3026;53.612;7.278;2023-08-31T08:57:48;5.27;;;1.57;;
5995;SDS011;3026;53.612;7.278;2023-08-31T09:00:15;3.43;;;1.70;;
5995;SDS011;3026;53.612;7.278;2023-08-31T09:02:48;5.60;;;1.50;;
5995;SDS011;3026;53.612;7.278;2023-08-31T09:05:17;3.60;;;1.40;;
5995;SDS011;3026;53.612;7.278;2023-08-31T09:08:01;2.33;;;1.27;;
5995;SDS011;3026;53.612;7.278;2023-08-31T09:10:33;5.97;;;1.27;;
5995;SDS011;3026;53.612;7.278;2023-08-31T09:13:04;4.63;;;1.20;;
5995;SDS011;3026;53.612;7.278;2023-08-31T09:15:37;2.50;;;1.17;;
5995;SDS011;3026;53.612;7.278;2023-08-31T09:18:09;3.90;;;1.10;;
5995;SDS011;3026;53.612;7.278;2023-08-31T09:20:47;2.03;;;1.17;;
5995;SDS011;3026;53.612;7.278;2023-08-31T09:23:15;5.50;;;1.23;;
5995;SDS011;3026;53.612;7.278;2023-08-31T09:25:44;3.57;;;1.10;;
5995;SDS011;3026;53.612;7.278;2023-08-31T09:28:13;3.97;;;1.40;;
5995;SDS011;3026;53.612;7.278;2023-08-31T09:30:42;5.90;;;1.50;;
5995;SDS011;3026;53.612;7.278;2023-08-31T09:33:09;4.80;;;1.17;;
5995;SDS011;3026;53.612;7.278;2023-08-31T09:35:46;0.70;;;0.70;;
5995;SDS011;3026;53.612;7.278;2023-08-31T09:38:16;2.93;;;0.80;;
5995;SDS011;3026;53.612;7.278;2023-08-31T09:40:43;2.20;;;0.90;;
5995;SDS011;3026;53.612;7.278;2023-08-31T09:43:10;3.17;;;0.80;;
5995;SDS011;3026;53.612;7.278;2023-08-31T09:45:37;5.17;;;1.20;;
5995;SDS011;3026;53.612;7.278;2023-08-31T09:48:05;5.23;;;1.17;;
5995;SDS011;3026;53.612;7.278;2023-08-31T09:50:33;4.33;;;0.80;;
5995;SDS011;3026;53.612;7.278;2023-08-31T09:53:02;1.77;;;0.83;;
5995;SDS011;3026;53.612;7.278;2023-08-31T09:55:31;2.90;;;1.10;;
5995;SDS011;3026;53.612;7.278;2023-08-31T09:58:02;3.40;;;1.63;;
5995;SDS011;3026;53.612;7.278;2023-08-31T10:00:32;5.60;;;1.40;;
5995;SDS011;3026;53.612;7.278;2023-08-31T10:03:03;3.67;;;0.83;;
5995;SDS011;3026;53.612;7.278;2023-08-31T10:05:31;2.97;;;0.90;;
5995;SDS011;3026;53.612;7.278;2023-08-31T10:08:00;3.47;;;0.80;;
5995;SDS011;3026;53.612;7.278;2023-08-31T10:10:31;3.90;;;0.70;;
5995;SDS011;3026;53.612;7.278;2023-08-31T10:13:01;1.17;;;0.70;;
5995;SDS011;3026;53.612;7.278;2023-08-31T10:15:31;1.53;;;0.70;;
5995;SDS011;3026;53.612;7.278;2023-08-31T10:18:00;2.53;;;0.90;;
5995;SDS011;3026;53.612;7.278;2023-08-31T10:20:28;1.20;;;0.90;;
5995;SDS011;3026;53.612;7.278;2023-08-31T10:22:56;4.97;;;0.90;;
5995;SDS011;3026;53.612;7.278;2023-08-31T10:25:24;1.70;;;0.70;;
5995;SDS011;3026;53.612;7.278;2023-08-31T10:27:53;1.50;;;0.80;;
5995;SDS011;3026;53.612;7.278;2023-08-31T10:30:24;2.23;;;0.90;;
5995;SDS011;3026;53.612;7.278;2023-08-31T10:35:49;2.83;;;1.03;;
5995;SDS011;3026;53.612;7.278;2023-08-31T10:38:24;3.63;;;0.80;;
5995;SDS011;3026;53.612;7.278;2023-08-31T10:43:48;2.30;;;0.70;;
5995;SDS011;3026;53.612;7.278;2023-08-31T10:46:35;2.10;;;0.60;;
5995;SDS011;3026;53.612;7.278;2023-08-31T10:49:15;1.70;;;0.60;;
5995;SDS011;3026;53.612;7.278;2023-08-31T10:51:43;2.10;;;0.50;;
5995;SDS011;3026;53.612;7.278;2023-08-31T10:54:12;3.10;;;0.80;;
5995;SDS011;3026;53.612;7.278;2023-08-31T10:59:56;0.80;;;0.70;;
5995;SDS011;3026;53.612;7.278;2023-08-31T11:02:27;3.40;;;0.80;;
5995;SDS011;3026;53.612;7.278;2023-08-31T11:05:00;3.27;;;0.90;;
5995;SDS011;3026;53.612;7.278;2023-08-31T11:07:29;7.50;;;1.10;;
5995;SDS011;3026;53.612;7.278;2023-08-31T11:10:13;2.10;;;0.87;;
5995;SDS011;3026;53.612;7.278;2023-08-31T11:12:42;2.60;;;1.00;;
5995;SDS011;3026;53.612;7.278;2023-08-31T11:15:14;4.67;;;1.17;;
5995;SDS011;3026;53.612;7.278;2023-08-31T11:17:42;3.07;;;1.40;;
5995;SDS011;3026;53.612;7.278;2023-08-31T11:20:12;4.47;;;1.20;;
5995;SDS011;3026;53.612;7.278;2023-08-31T11:22:43;4.17;;;1.30;;
5995;SDS011;3026;53.612;7.278;2023-08-31T11:25:13;3.20;;;1.87;;
5995;SDS011;3026;53.612;7.278;2023-08-31T11:27:41;2.40;;;1.40;;
5995;SDS011;3026;53.612;7.278;2023-08-31T11:30:21;3.33;;;1.80;;
5995;SDS011;3026;53.612;7.278;2023-08-31T11:32:49;4.20;;;1.37;;
5995;SDS011;3026;53.612;7.278;2023-08-31T11:35:17;2.13;;;1.10;;
5995;SDS011;3026;53.612;7.278;2023-08-31T11:37:49;5.53;;;1.67;;
5995;SDS011;3026;53.612;7.278;2023-08-31T11:40:16;1.87;;;1.10;;
5995;SDS011;3026;53.612;7.278;2023-08-31T11:42:44;2.60;;;1.60;;
5995;SDS011;3026;53.612;7.278;2023-08-31T11:45:12;6.00;;;1.37;;
5995;SDS011;3026;53.612;7.278;2023-08-31T11:47:41;4.93;;;1.23;;
5995;SDS011;3026;53.612;7.278;2023-08-31T11:50:10;1.67;;;0.87;;
5995;SDS011;3026;53.612;7.278;2023-08-31T11:52:39;5.70;;;1.10;;
5995;SDS011;3026;53.612;7.278;2023-08-31T11:55:10;3.10;;;1.13;;
5995;SDS011;3026;53.612;7.278;2023-08-31T11:57:38;4.57;;;1.30;;
5995;SDS011;3026;53.612;7.278;2023-08-31T12:00:07;3.83;;;1.10;;
5995;SDS011;3026;53.612;7.278;2023-08-31T12:02:38;3.47;;;1.83;;
5995;SDS011;3026;53.612;7.278;2023-08-31T12:05:07;1.23;;;0.97;;
5995;SDS011;3026;53.612;7.278;2023-08-31T12:07:39;3.47;;;1.10;;
5995;SDS011;3026;53.612;7.278;2023-08-31T12:10:07;2.73;;;0.90;;
5995;SDS011;3026;53.612;7.278;2023-08-31T12:12:35;3.93;;;1.03;;
5995;SDS011;3026;53.612;7.278;2023-08-31T12:15:03;2.83;;;1.30;;
5995;SDS011;3026;53.612;7.278;2023-08-31T12:17:36;2.23;;;1.00;;
5995;SDS011;3026;53.612;7.278;2023-08-31T12:20:04;4.50;;;1.23;;
5995;SDS011;3026;53.612;7.278;2023-08-31T12:22:34;4.50;;;1.10;;
5995;SDS011;3026;53.612;7.278;2023-08-31T12:25:01;5.13;;;1.80;;
5995;SDS011;3026;53.612;7.278;2023-08-31T12:27:28;4.77;;;1.60;;
5995;SDS011;3026;53.612;7.278;2023-08-31T12:29:56;4.40;;;1.30;;
5995;SDS011;3026;53.612;7.278;2023-08-31T12:32:24;5.30;;;1.60;;
5995;SDS011;3026;53.612;7.278;2023-08-31T12:34:51;3.33;;;1.40;;
5995;SDS011;3026;53.612;7.278;2023-08-31T12:37:18;6.20;;;1.50;;
5995;SDS011;3026;53.612;7.278;2023-08-31T12:39:46;2.87;;;1.30;;
5995;SDS011;3026;53.612;7.278;2023-08-31T12:42:14;1.83;;;1.23;;
5995;SDS011;3026;53.612;7.278;2023-08-31T12:44:42;2.37;;;1.30;;
5995;SDS011;3026;53.612;7.278;2023-08-31T12:47:10;3.40;;;1.30;;
5995;SDS011;3026;53.612;7.278;2023-08-31T12:49:38;1.93;;;1.07;;
5995;SDS011;3026;53.612;7.278;2023-08-31T12:52:06;2.83;;;1.33;;
5995;SDS011;3026;53.612;7.278;2023-08-31T12:54:37;1.87;;;1.40;;
5995;SDS011;3026;53.612;7.278;2023-08-31T12:57:06;2.47;;;1.17;;
5995;SDS011;3026;53.612;7.278;2023-08-31T12:59:34;3.97;;;1.30;;
5995;SDS011;3026;53.612;7.278;2023-08-31T13:02:02;1.73;;;1.00;;
5995;SDS011;3026;53.612;7.278;2023-08-31T13:04:36;3.17;;;1.43;;
5995;SDS011;3026;53.612;7.278;2023-08-31T13:07:08;5.10;;;1.33;;
5995;SDS011;3026;53.612;7.278;2023-08-31T13:09:36;2.53;;;1.27;;
5995;SDS011;3026;53.612;7.278;2023-08-31T13:12:08;6.63;;;1.37;;
5995;SDS011;3026;53.612;7.278;2023-08-31T13:14:37;2.83;;;1.70;;
5995;SDS011;3026;53.612;7.278;2023-08-31T13:17:11;2.77;;;1.43;;
5995;SDS011;3026;53.612;7.278;2023-08-31T13:19:39;2.50;;;1.10;;
5995;SDS011;3026;53.612;7.278;2023-08-31T13:22:08;5.03;;;1.60;;
5995;SDS011;3026;53.612;7.278;2023-08-31T13:24:41;5.63;;;1.80;;
5995;SDS011;3026;53.612;7.278;2023-08-31T13:27:10;5.30;;;1.47;;
5995;SDS011;3026;53.612;7.278;2023-08-31T13:29:38;3.30;;;1.63;;
5995;SDS011;3026;53.612;7.278;2023-08-31T13:32:09;4.47;;;1.20;;
5995;SDS011;3026;53.612;7.278;2023-08-31T13:34:37;2.50;;;0.80;;
5995;SDS011;3026;53.612;7.278;2023-08-31T13:37:06;4.97;;;1.47;;
5995;SDS011;3026;53.612;7.278;2023-08-31T13:39:34;4.83;;;1.07;;
5995;SDS011;3026;53.612;7.278;2023-08-31T13:42:05;3.53;;;1.20;;
5995;SDS011;3026;53.612;7.278;2023-08-31T13:44:35;4.37;;;1.57;;
5995;SDS011;3026;53.612;7.278;2023-08-31T13:47:03;3.07;;;1.17;;
5995;SDS011;3026;53.612;7.278;2023-08-31T13:49:33;6.20;;;1.63;;
5995;SDS011;3026;53.612;7.278;2023-08-31T13:52:00;2.23;;;1.20;;
5995;SDS011;3026;53.612;7.278;2023-08-31T13:54:31;2.43;;;1.40;;
5995;SDS011;3026;53.612;7.278;2023-08-31T13:56:58;6.97;;;1.20;;
5995;SDS011;3026;53.612;7.278;2023-08-31T13:59:26;3.27;;;1.43;;
5995;SDS011;3026;53.612;7.278;2023-08-31T14:01:57;4.67;;;1.53;;
5995;SDS011;3026;53.612;7.278;2023-08-31T14:04:24;4.03;;;1.20;;
5995;SDS011;3026;53.612;7.278;2023-08-31T14:06:57;4.20;;;1.43;;
5995;SDS011;3026;53.612;7.278;2023-08-31T14:09:26;4.73;;;1.73;;
5995;SDS011;3026;53.612;7.278;2023-08-31T14:11:57;3.43;;;1.50;;
5995;SDS011;3026;53.612;7.278;2023-08-31T14:14:25;3.27;;;1.30;;
5995;SDS011;3026;53.612;7.278;2023-08-31T14:16:52;4.40;;;1.60;;
5995;SDS011;3026;53.612;7.278;2023-08-31T14:19:22;2.33;;;1.23;;
5995;SDS011;3026;53.612;7.278;2023-08-31T14:21:49;4.70;;;1.30;;
5995;SDS011;3026;53.612;7.278;2023-08-31T14:24:18;2.40;;;1.30;;
5995;SDS011;3026;53.612;7.278;2023-08-31T14:26:45;6.47;;;1.50;;
5995;SDS011;3026;53.612;7.278;2023-08-31T14:29:12;5.53;;;1.30;;
5995;SDS011;3026;53.612;7.278;2023-08-31T14:31:39;3.90;;;1.43;;
5995;SDS011;3026;53.612;7.278;2023-08-31T14:34:06;5.73;;;1.43;;
5995;SDS011;3026;53.612;7.278;2023-08-31T14:36:35;3.77;;;1.10;;
5995;SDS011;3026;53.612;7.278;2023-08-31T14:39:02;4.97;;;1.33;;
5995;SDS011;3026;53.612;7.278;2023-08-31T14:41:30;3.27;;;1.30;;
5995;SDS011;3026;53.612;7.278;2023-08-31T14:43:58;3.67;;;1.53;;
5995;SDS011;3026;53.612;7.278;2023-08-31T14:46:26;4.70;;;1.20;;
5995;SDS011;3026;53.612;7.278;2023-08-31T14:48:53;2.43;;;1.23;;
5995;SDS011;3026;53.612;7.278;2023-08-31T14:51:21;3.77;;;1.50;;
5995;SDS011;3026;53.612;7.278;2023-08-31T14:53:49;3.27;;;1.37;;
5995;SDS011;3026;53.612;7.278;2023-08-31T14:56:16;2.00;;;1.30;;
5995;SDS011;3026;53.612;7.278;2023-08-31T14:58:49;6.13;;;1.63;;
5995;SDS011;3026;53.612;7.278;2023-08-31T15:01:16;2.13;;;1.40;;
5995;SDS011;3026;53.612;7.278;2023-08-31T15:03:44;2.67;;;1.40;;
5995;SDS011;3026;53.612;7.278;2023-08-31T15:06:11;3.20;;;1.23;;
5995;SDS011;3026;53.612;7.278;2023-08-31T15:08:39;2.03;;;0.80;;
5995;SDS011;3026;53.612;7.278;2023-08-31T15:11:09;2.80;;;1.27;;
5995;SDS011;3026;53.612;7.278;2023-08-31T15:13:36;4.37;;;1.50;;
5995;SDS011;3026;53.612;7.278;2023-08-31T15:16:03;3.83;;;1.63;;
5995;SDS011;3026;53.612;7.278;2023-08-31T15:18:31;2.57;;;1.20;;
5995;SDS011;3026;53.612;7.278;2023-08-31T15:20:58;3.70;;;1.30;;
5995;SDS011;3026;53.612;7.278;2023-08-31T15:23:26;2.73;;;1.53;;
5995;SDS011;3026;53.612;7.278;2023-08-31T15:25:58;5.57;;;1.30;;
5995;SDS011;3026;53.612;7.278;2023-08-31T15:28:28;3.43;;;1.50;;
5995;SDS011;3026;53.612;7.278;2023-08-31T15:30:55;4.57;;;1.80;;
5995;SDS011;3026;53.612;7.278;2023-08-31T15:33:24;3.23;;;1.27;;
5995;SDS011;3026;53.612;7.278;2023-08-31T15:35:51;8.60;;;2.00;;